createdAt,value
2019-03-25T00:57:24.244Z,4.00
2019-03-25T00:58:24.234Z,4.00
2019-03-25T00:59:24.220Z,4.00
2019-03-25T01:00:24.208Z,4.00
2019-03-25T01:01:24.199Z,4.00
2019-03-25T01:02:24.239Z,8.00
2019-03-25T01:03:24.177Z,12.00
2019-03-25T01:04:24.172Z,12.00
2019-03-25T01:05:24.159Z,16.00
2019-03-25T01:06:24.144Z,20.00
2019-03-25T01:07:24.136Z,24.00
2019-03-25T01:08:24.176Z,32.00
2019-03-25T01:09:24.115Z,36.00
2019-03-25T01:10:24.100Z,44.00
2019-03-25T01:11:24.093Z,52.00
2019-03-25T01:12:24.082Z,64.00
2019-03-25T01:13:24.070Z,76.00
2019-03-25T01:14:24.360Z,84.00
2019-03-25T01:15:24.048Z,100.00
2019-03-25T01:16:24.041Z,116.00
2019-03-25T01:17:24.027Z,132.00
2019-03-25T01:18:24.019Z,148.00
2019-03-25T01:19:24.014Z,168.00
2019-03-25T01:20:24.149Z,184.00
2019-03-25T01:21:23.987Z,208.00
2019-03-25T01:22:23.977Z,232.00
2019-03-25T01:23:23.959Z,264.00
2019-03-25T01:24:23.955Z,292.00
2019-03-25T01:25:23.981Z,328.00
2019-03-25T01:26:23.979Z,364.00
2019-03-25T01:27:23.922Z,408.00
2019-03-25T01:28:23.910Z,452.00
2019-03-25T01:29:23.902Z,500.00
2019-03-25T01:30:23.888Z,548.00
2019-03-25T01:31:23.876Z,600.00
2019-03-25T01:32:24.015Z,648.00
2019-03-25T01:33:23.858Z,708.00
2019-03-25T01:34:23.845Z,764.00
2019-03-25T01:35:23.839Z,828.00
2019-03-25T01:36:23.825Z,896.00
2019-03-25T01:37:23.815Z,976.00
2019-03-25T01:38:23.901Z,1056.00
2019-03-25T01:39:23.796Z,1156.00
2019-03-25T01:40:23.783Z,1340.00
2019-03-25T01:41:23.773Z,1572.00
2019-03-25T01:42:23.761Z,1992.00
2019-03-25T01:43:23.752Z,2800.00
2019-03-25T01:44:23.839Z,3400.00
2019-03-25T01:45:23.737Z,3408.00
2019-03-25T01:46:23.718Z,2892.00
2019-03-25T01:47:23.707Z,2804.00
2019-03-25T01:48:23.697Z,4316.00
2019-03-25T01:49:23.701Z,4592.00
2019-03-25T01:50:23.827Z,3356.00
2019-03-25T01:51:23.668Z,2724.00
2019-03-25T01:52:23.655Z,2740.00
2019-03-25T01:53:23.645Z,3096.00
2019-03-25T01:54:23.631Z,3276.00
2019-03-25T01:55:23.619Z,3332.00
2019-03-25T01:56:23.665Z,4956.00
2019-03-25T01:57:23.611Z,4660.00
2019-03-25T01:58:23.597Z,4960.00
2019-03-25T01:59:23.593Z,9044.00
2019-03-25T02:00:23.566Z,11320.00
2019-03-25T02:01:23.564Z,11068.00
2019-03-25T02:02:23.598Z,12696.00
2019-03-25T02:03:23.540Z,15152.00
2019-03-25T02:04:23.532Z,15808.00
2019-03-25T02:05:23.515Z,14560.00
2019-03-25T02:06:23.507Z,15392.00
2019-03-25T02:07:23.494Z,17536.00
2019-03-25T02:08:23.640Z,19456.00
2019-03-25T02:09:23.475Z,20672.00
2019-03-25T02:10:23.466Z,21184.00
2019-03-25T02:11:23.458Z,22176.00
2019-03-25T02:12:23.438Z,21536.00
2019-03-25T02:13:23.438Z,21536.00
2019-03-25T02:14:23.526Z,22560.00
2019-03-25T02:15:23.459Z,20640.00
2019-03-25T02:16:23.409Z,21024.00
2019-03-25T02:17:23.390Z,22816.00
2019-03-25T02:18:23.383Z,23712.00
2019-03-25T02:19:23.373Z,24640.00
2019-03-25T02:20:26.687Z,24960.00
2019-03-25T02:21:23.347Z,25472.00
2019-03-25T02:22:23.410Z,26464.00
2019-03-25T02:23:23.325Z,27552.00
2019-03-25T02:24:23.319Z,29504.00
2019-03-25T02:25:25.667Z,31040.00
2019-03-25T02:26:23.641Z,32544.00
2019-03-25T02:27:23.284Z,33024.00
2019-03-25T02:28:23.275Z,32064.00
2019-03-25T02:29:23.265Z,31808.00
2019-03-25T02:30:23.256Z,31488.00
2019-03-25T02:31:23.244Z,31968.00
2019-03-25T02:32:23.281Z,31744.00
2019-03-25T02:33:23.226Z,29664.00
2019-03-25T02:34:23.214Z,27104.00
2019-03-25T02:35:23.199Z,26432.00
2019-03-25T02:36:23.195Z,25536.00
2019-03-25T02:37:23.180Z,24384.00
2019-03-25T02:38:23.218Z,24640.00
2019-03-25T02:39:23.157Z,25952.00
2019-03-25T02:40:23.150Z,26560.00
2019-03-25T02:41:23.138Z,26976.00
2019-03-25T02:42:23.126Z,27520.00
2019-03-25T02:43:23.122Z,28224.00
2019-03-25T02:44:23.275Z,28384.00
2019-03-25T02:45:23.096Z,26560.00
2019-03-25T02:46:23.084Z,27040.00
2019-03-25T02:47:23.071Z,29088.00
2019-03-25T02:48:23.062Z,30368.00
2019-03-25T02:49:23.058Z,30528.00
2019-03-25T02:50:23.145Z,29728.00
2019-03-25T02:51:23.033Z,29888.00
2019-03-25T02:52:23.025Z,29664.00
2019-03-25T02:53:23.012Z,28640.00
2019-03-25T02:54:22.999Z,29152.00
2019-03-25T02:55:22.985Z,29312.00
2019-03-25T02:56:23.031Z,29920.00
2019-03-25T02:57:22.968Z,31072.00
2019-03-25T02:58:22.958Z,30720.00
2019-03-25T02:59:22.951Z,30400.00
2019-03-25T03:00:22.933Z,29728.00
2019-03-25T03:01:22.937Z,28448.00
2019-03-25T03:02:23.071Z,29088.00
2019-03-25T03:03:22.915Z,29472.00
2019-03-25T03:04:22.907Z,29184.00
2019-03-25T03:05:22.894Z,29088.00
2019-03-25T03:06:22.884Z,28960.00
2019-03-25T03:07:22.867Z,28960.00
2019-03-25T03:08:22.911Z,28928.00
2019-03-25T03:09:22.846Z,27040.00
2019-03-25T03:10:22.833Z,25792.00
2019-03-25T03:11:22.839Z,26560.00
2019-03-25T03:12:22.816Z,27712.00
2019-03-25T03:13:22.800Z,27936.00
2019-03-25T03:14:22.896Z,28512.00
2019-03-25T03:15:22.778Z,28672.00
2019-03-25T03:16:22.771Z,29568.00
2019-03-25T03:17:22.758Z,29344.00
2019-03-25T03:18:22.748Z,27872.00
2019-03-25T03:19:22.743Z,26528.00
2019-03-25T03:20:22.881Z,23872.00
2019-03-25T03:21:22.728Z,19224.00
2019-03-25T03:22:22.706Z,14836.00
2019-03-25T03:23:22.697Z,13456.00
2019-03-25T03:24:22.681Z,12552.00
2019-03-25T03:25:22.682Z,11808.00
2019-03-25T03:26:22.737Z,11504.00
2019-03-25T03:27:22.662Z,11352.00
2019-03-25T03:28:22.651Z,11244.00
2019-03-25T03:29:22.633Z,11132.00
2019-03-25T03:30:22.622Z,11032.00
2019-03-25T03:31:22.621Z,10928.00
2019-03-25T03:32:22.657Z,10848.00
2019-03-25T03:33:22.591Z,10772.00
2019-03-25T03:34:22.607Z,10712.00
2019-03-25T03:35:22.569Z,10644.00
2019-03-25T03:36:22.559Z,10580.00
2019-03-25T03:37:22.550Z,10516.00
2019-03-25T03:38:22.746Z,10468.00
2019-03-25T03:39:22.531Z,10420.00
2019-03-25T03:40:22.516Z,10356.00
2019-03-25T03:41:22.507Z,10312.00
2019-03-25T03:42:22.505Z,10244.00
2019-03-25T03:43:22.489Z,10192.00
2019-03-25T03:44:22.535Z,10124.00
2019-03-25T03:45:22.463Z,9864.00
2019-03-25T03:46:22.461Z,9596.00
2019-03-25T03:47:22.442Z,9904.00
2019-03-25T03:48:22.442Z,9764.00
2019-03-25T03:49:22.425Z,9472.00
2019-03-25T03:50:22.514Z,9296.00
2019-03-25T03:51:22.403Z,9656.00
2019-03-25T03:52:22.394Z,9488.00
2019-03-25T03:53:22.385Z,9644.00
2019-03-25T03:54:22.373Z,8820.00
2019-03-25T03:55:22.369Z,9212.00
2019-03-25T03:56:22.550Z,9132.00
2019-03-25T03:57:22.349Z,8892.00
2019-03-25T03:58:22.331Z,8576.00
2019-03-25T03:59:22.328Z,8792.00
2019-03-25T04:00:22.311Z,9360.00
2019-03-25T04:01:22.299Z,9564.00
2019-03-25T04:02:22.338Z,9616.00
2019-03-25T04:03:22.274Z,9692.00
2019-03-25T04:04:22.269Z,9708.00
2019-03-25T04:05:22.255Z,9584.00
2019-03-25T04:06:22.244Z,9572.00
2019-03-25T04:07:22.241Z,9548.00
2019-03-25T04:08:22.339Z,9308.00
2019-03-25T04:09:22.214Z,8956.00
2019-03-25T04:10:22.201Z,8708.00
2019-03-25T04:11:22.192Z,8340.00
2019-03-25T04:12:22.188Z,8136.00
2019-03-25T04:13:22.171Z,8556.00
2019-03-25T04:14:22.315Z,8512.00
2019-03-25T04:15:22.152Z,8408.00
2019-03-25T04:16:22.139Z,8236.00
2019-03-25T04:17:22.140Z,7836.00
2019-03-25T04:18:22.119Z,7636.00
2019-03-25T04:19:22.115Z,8192.00
2019-03-25T04:20:22.150Z,8740.00
2019-03-25T04:21:22.085Z,9852.00
2019-03-25T04:22:22.079Z,9956.00
2019-03-25T04:23:22.099Z,9176.00
2019-03-25T04:24:22.061Z,9392.00
2019-03-25T04:25:22.049Z,9800.00
2019-03-25T04:26:28.673Z,9792.00
2019-03-25T04:27:46.838Z,10012.00
2019-03-25T04:28:46.829Z,10088.00
2019-03-25T04:29:46.817Z,10084.00
2019-03-25T04:30:46.815Z,10264.00
2019-03-25T04:31:46.944Z,10304.00
2019-03-25T04:32:46.796Z,10096.00
2019-03-25T04:33:46.774Z,10104.00
2019-03-25T04:34:46.762Z,10088.00
2019-03-25T04:35:46.754Z,9960.00
2019-03-25T04:36:46.744Z,9816.00
2019-03-25T04:37:46.782Z,9648.00
2019-03-25T04:38:46.724Z,9528.00
2019-03-25T04:39:46.714Z,9412.00
2019-03-25T04:40:46.694Z,9308.00
2019-03-25T04:41:46.688Z,9284.00
2019-03-25T04:42:46.675Z,9316.00
2019-03-25T04:43:46.715Z,9296.00
2019-03-25T04:44:46.650Z,9296.00
2019-03-25T04:45:46.643Z,9288.00
2019-03-25T04:46:46.631Z,9288.00
2019-03-25T04:47:46.621Z,9288.00
2019-03-25T04:48:46.612Z,9284.00
2019-03-25T04:49:46.750Z,9284.00
2019-03-25T04:50:46.591Z,9276.00
2019-03-25T04:51:46.579Z,9284.00
2019-03-25T04:52:46.571Z,9308.00
2019-03-25T04:53:46.556Z,9320.00
2019-03-25T04:54:46.547Z,9352.00
2019-03-25T04:55:46.584Z,9320.00
2019-03-25T04:56:46.524Z,9132.00
2019-03-25T04:57:46.512Z,9120.00
2019-03-25T04:58:46.503Z,9096.00
2019-03-25T04:59:46.492Z,9032.00
2019-03-25T05:00:46.481Z,8920.00
2019-03-25T05:01:46.571Z,8700.00
2019-03-25T05:02:46.469Z,8440.00
2019-03-25T05:03:46.445Z,8500.00
2019-03-25T05:04:46.437Z,8500.00
2019-03-25T05:05:46.426Z,8428.00
2019-03-25T05:06:46.418Z,8284.00
2019-03-25T05:07:46.658Z,8308.00
2019-03-25T05:08:46.400Z,8252.00
2019-03-25T05:09:46.382Z,8208.00
2019-03-25T05:10:46.383Z,8164.00
2019-03-25T05:11:46.368Z,8148.00
2019-03-25T05:12:46.353Z,8108.00
2019-03-25T05:13:46.445Z,7940.00
2019-03-25T05:14:46.333Z,7956.00
2019-03-25T05:15:46.322Z,7732.00
2019-03-25T05:16:46.312Z,7628.00
2019-03-25T05:17:46.302Z,7324.00
2019-03-25T05:18:46.294Z,7244.00
2019-03-25T05:19:46.381Z,7048.00
2019-03-25T05:20:46.269Z,6968.00
2019-03-25T05:21:46.258Z,6772.00
2019-03-25T05:22:46.245Z,6552.00
2019-03-25T05:23:46.235Z,6416.00
2019-03-25T05:24:46.225Z,6448.00
2019-03-25T05:25:46.466Z,6368.00
2019-03-25T05:26:50.935Z,6248.00
2019-03-25T05:27:46.197Z,6132.00
2019-03-25T05:28:46.186Z,6232.00
2019-03-25T05:29:46.171Z,6184.00
2019-03-25T05:30:46.162Z,6220.00
2019-03-25T05:31:46.199Z,6240.00
2019-03-25T05:32:46.140Z,6072.00
2019-03-25T05:33:46.128Z,5968.00
2019-03-25T05:34:46.120Z,5976.00
2019-03-25T05:35:46.934Z,6004.00
2019-03-25T05:36:46.099Z,5964.00
2019-03-25T05:37:46.143Z,6044.00
2019-03-25T05:38:46.083Z,6056.00
2019-03-25T05:39:46.065Z,6052.00
2019-03-25T05:40:46.057Z,6028.00
2019-03-25T05:41:46.040Z,6000.00
2019-03-25T05:42:46.034Z,5968.00
2019-03-25T05:43:46.277Z,5936.00
2019-03-25T05:44:46.015Z,5916.00
2019-03-25T05:45:46.004Z,5904.00
2019-03-25T05:46:45.992Z,5896.00
2019-03-25T05:47:45.979Z,5880.00
2019-03-25T05:48:45.972Z,5864.00
2019-03-25T05:49:46.011Z,5864.00
2019-03-25T05:50:45.951Z,5856.00
2019-03-25T05:51:45.952Z,5848.00
2019-03-25T05:52:45.927Z,5848.00
2019-03-25T05:53:45.916Z,5840.00
2019-03-25T05:54:45.908Z,5840.00
2019-03-25T05:55:45.999Z,5832.00
2019-03-25T05:56:45.889Z,5836.00
2019-03-25T05:57:45.878Z,5840.00
2019-03-25T05:58:45.870Z,5848.00
2019-03-25T05:59:45.855Z,5852.00
2019-03-25T06:00:45.845Z,5860.00
2019-03-25T06:01:46.036Z,5872.00
2019-03-25T06:02:45.822Z,5884.00
2019-03-25T06:03:45.812Z,5908.00
2019-03-25T06:04:45.802Z,5924.00
2019-03-25T06:05:45.794Z,5956.00
2019-03-25T06:06:45.778Z,5984.00
2019-03-25T06:07:45.821Z,6000.00
2019-03-25T06:08:45.758Z,5980.00
2019-03-25T06:09:45.747Z,5916.00
2019-03-25T06:10:45.739Z,5876.00
2019-03-25T06:11:45.728Z,5884.00
2019-03-25T06:12:45.717Z,5876.00
2019-03-25T06:13:45.757Z,5864.00
2019-03-25T06:14:45.700Z,5856.00
2019-03-25T06:15:45.682Z,5836.00
2019-03-25T06:16:45.681Z,5832.00
2019-03-25T06:17:45.665Z,5824.00
2019-03-25T06:18:45.655Z,5812.00
2019-03-25T06:19:45.793Z,5796.00
2019-03-25T06:20:45.640Z,5788.00
2019-03-25T06:21:45.619Z,5768.00
2019-03-25T06:22:45.614Z,5756.00
2019-03-25T06:23:45.600Z,5748.00
2019-03-25T06:24:45.590Z,5744.00
2019-03-25T06:25:45.629Z,5740.00
2019-03-25T06:26:45.567Z,5736.00
2019-03-25T06:27:45.560Z,5728.00
2019-03-25T06:28:45.547Z,5712.00
2019-03-25T06:29:45.539Z,5704.00
2019-03-25T06:30:45.524Z,5692.00
2019-03-25T06:31:45.566Z,5680.00
2019-03-25T06:32:45.512Z,5672.00
2019-03-25T06:33:45.496Z,5664.00
2019-03-25T06:34:45.490Z,5656.00
2019-03-25T06:35:45.474Z,5644.00
2019-03-25T06:36:45.463Z,5632.00
2019-03-25T06:37:45.662Z,5620.00
2019-03-25T06:38:45.452Z,5604.00
2019-03-25T06:39:45.439Z,5592.00
2019-03-25T06:40:45.424Z,5576.00
2019-03-25T06:41:45.438Z,5560.00
2019-03-25T06:42:45.407Z,5544.00
2019-03-25T06:43:45.524Z,5536.00
2019-03-25T06:44:45.375Z,5520.00
2019-03-25T06:45:45.411Z,5504.00
2019-03-25T06:46:45.401Z,5496.00
2019-03-25T06:47:45.350Z,5484.00
2019-03-25T06:48:45.366Z,5464.00
2019-03-25T06:49:45.381Z,5452.00
2019-03-25T06:50:45.308Z,5440.00
2019-03-25T06:51:45.442Z,5424.00
2019-03-25T06:52:45.287Z,5408.00
2019-03-25T06:53:45.273Z,5392.00
2019-03-25T06:54:45.265Z,5372.00
2019-03-25T06:55:45.450Z,5356.00
2019-03-25T06:56:45.248Z,5344.00
2019-03-25T06:57:45.233Z,5336.00
2019-03-25T06:58:45.225Z,5332.00
2019-03-25T06:59:45.222Z,5320.00
2019-03-25T07:00:45.196Z,5320.00
2019-03-25T07:01:45.326Z,5304.00
2019-03-25T07:02:45.177Z,5292.00
2019-03-25T07:03:45.164Z,5276.00
2019-03-25T07:04:45.155Z,5252.00
2019-03-25T07:05:45.137Z,5232.00
2019-03-25T07:06:45.171Z,5208.00
2019-03-25T07:07:45.177Z,5192.00
2019-03-25T07:08:45.107Z,5188.00
2019-03-25T07:09:45.102Z,5180.00
2019-03-25T07:10:45.090Z,5172.00
2019-03-25T07:11:45.084Z,5164.00
2019-03-25T07:12:45.095Z,5156.00
2019-03-25T07:13:45.204Z,5140.00
2019-03-25T07:14:45.045Z,5128.00
2019-03-25T07:15:45.045Z,5120.00
2019-03-25T07:16:45.025Z,5112.00
2019-03-25T07:17:45.012Z,5100.00
2019-03-25T07:18:45.006Z,5092.00
2019-03-25T07:19:45.113Z,5088.00
2019-03-25T07:20:44.976Z,5092.00
2019-03-25T07:21:44.991Z,5092.00
2019-03-25T07:22:44.953Z,5092.00
2019-03-25T07:23:44.943Z,5096.00
2019-03-25T07:24:44.941Z,5100.00
2019-03-25T07:25:44.973Z,5108.00
2019-03-25T07:26:44.905Z,5120.00
2019-03-25T07:27:44.903Z,5136.00
2019-03-25T07:28:44.886Z,5144.00
2019-03-25T07:29:44.880Z,5160.00
2019-03-25T07:30:44.875Z,5176.00
2019-03-25T07:31:45.119Z,5188.00
2019-03-25T07:32:44.844Z,5200.00
2019-03-25T07:33:44.834Z,5216.00
2019-03-25T07:34:44.825Z,5220.00
2019-03-25T07:35:44.811Z,5220.00
2019-03-25T07:36:44.801Z,5224.00
2019-03-25T07:37:44.890Z,5220.00
2019-03-25T07:38:44.774Z,5220.00
2019-03-25T07:39:44.762Z,5216.00
2019-03-25T07:40:44.752Z,5212.00
2019-03-25T07:41:44.752Z,5208.00
2019-03-25T07:42:44.744Z,5208.00
2019-03-25T07:43:44.773Z,5200.00
2019-03-25T07:44:44.713Z,5196.00
2019-03-25T07:45:44.698Z,5180.00
2019-03-25T07:46:44.691Z,5172.00
2019-03-25T07:47:44.681Z,5156.00
2019-03-25T07:48:44.670Z,5148.00
2019-03-25T07:49:44.806Z,5136.00
2019-03-25T07:50:44.641Z,5128.00
2019-03-25T07:51:44.638Z,5124.00
2019-03-25T07:52:44.624Z,5120.00
2019-03-25T07:53:44.614Z,5108.00
2019-03-25T07:54:44.614Z,5092.00
2019-03-25T07:55:44.638Z,5088.00
2019-03-25T07:56:44.591Z,5088.00
2019-03-25T07:57:48.450Z,5084.00
2019-03-25T07:58:44.582Z,5080.00
2019-03-25T07:59:44.638Z,5080.00
2019-03-25T08:00:44.559Z,5080.00
2019-03-25T08:01:44.583Z,5088.00
2019-03-25T08:02:44.518Z,5080.00
2019-03-25T08:03:44.527Z,5076.00
2019-03-25T08:04:44.517Z,5072.00
2019-03-25T08:05:44.485Z,5068.00
2019-03-25T08:06:44.492Z,5056.00
2019-03-25T08:07:44.660Z,5036.00
2019-03-25T08:08:44.462Z,5024.00
2019-03-25T08:09:44.448Z,5004.00
2019-03-25T08:10:44.447Z,4992.00
2019-03-25T08:11:44.415Z,4980.00
2019-03-25T08:12:44.408Z,4972.00
2019-03-25T08:13:44.527Z,4960.00
2019-03-25T08:14:44.404Z,4948.00
2019-03-25T08:15:44.380Z,4948.00
2019-03-25T08:16:44.357Z,4932.00
2019-03-25T08:17:44.347Z,4928.00
2019-03-25T08:18:44.335Z,4924.00
2019-03-25T08:19:44.375Z,4920.00
2019-03-25T08:20:44.317Z,4916.00
2019-03-25T08:21:44.305Z,4908.00
2019-03-25T08:22:44.288Z,4908.00
2019-03-25T08:23:44.280Z,4908.00
2019-03-25T08:24:44.271Z,4908.00
2019-03-25T08:25:44.413Z,4900.00
2019-03-25T08:26:44.255Z,4900.00
2019-03-25T08:27:44.242Z,4900.00
2019-03-25T08:28:44.227Z,4888.00
2019-03-25T08:29:44.219Z,4884.00
2019-03-25T08:30:44.208Z,4880.00
2019-03-25T08:31:44.243Z,4880.00
2019-03-25T08:32:44.187Z,4888.00
2019-03-25T08:33:44.173Z,4888.00
2019-03-25T08:34:44.167Z,4892.00
2019-03-25T08:35:44.154Z,4892.00
2019-03-25T08:36:44.143Z,4892.00
2019-03-25T08:37:44.183Z,4892.00
2019-03-25T08:38:44.125Z,4892.00
2019-03-25T08:39:44.110Z,4888.00
2019-03-25T08:40:44.098Z,4884.00
2019-03-25T08:41:44.093Z,4880.00
2019-03-25T08:42:44.090Z,4876.00
2019-03-25T08:43:44.315Z,4880.00
2019-03-25T08:44:44.060Z,4876.00
2019-03-25T08:45:44.052Z,4880.00
2019-03-25T08:46:44.035Z,4884.00
2019-03-25T08:47:44.022Z,4884.00
2019-03-25T08:48:44.016Z,4888.00
2019-03-25T08:49:44.052Z,4884.00
2019-03-25T08:50:43.994Z,4876.00
2019-03-25T08:51:43.980Z,4856.00
2019-03-25T08:52:43.964Z,4836.00
2019-03-25T08:53:43.956Z,4784.00
2019-03-25T08:54:43.947Z,4804.00
2019-03-25T08:55:44.044Z,4784.00
2019-03-25T08:56:43.927Z,4772.00
2019-03-25T08:57:43.916Z,4764.00
2019-03-25T08:58:43.903Z,4760.00
2019-03-25T08:59:43.896Z,4760.00
2019-03-25T09:00:43.937Z,4748.00
2019-03-25T09:01:44.021Z,4740.00
2019-03-25T09:02:43.860Z,4736.00
2019-03-25T09:03:43.848Z,4732.00
2019-03-25T09:04:43.838Z,4724.00
2019-03-25T09:05:43.823Z,4724.00
2019-03-25T09:06:43.816Z,4720.00
2019-03-25T09:07:43.905Z,4708.00
2019-03-25T09:08:43.794Z,4696.00
2019-03-25T09:09:43.785Z,4672.00
2019-03-25T09:10:43.771Z,4652.00
2019-03-25T09:11:43.760Z,4628.00
2019-03-25T09:12:43.751Z,4612.00
2019-03-25T09:13:43.791Z,4620.00
2019-03-25T09:14:43.725Z,4600.00
2019-03-25T09:15:43.719Z,4592.00
2019-03-25T09:16:43.706Z,4580.00
2019-03-25T09:17:43.696Z,4564.00
2019-03-25T09:18:43.688Z,4556.00
2019-03-25T09:19:43.851Z,4544.00
2019-03-25T09:20:43.663Z,4532.00
2019-03-25T09:21:43.655Z,4524.00
2019-03-25T09:22:43.641Z,4516.00
2019-03-25T09:23:43.634Z,4512.00
2019-03-25T09:24:43.620Z,4500.00
2019-03-25T09:25:43.704Z,4492.00
2019-03-25T09:26:43.597Z,4496.00
2019-03-25T09:27:43.591Z,4492.00
2019-03-25T09:28:43.576Z,4496.00
2019-03-25T09:29:43.560Z,4492.00
2019-03-25T09:30:43.558Z,4492.00
2019-03-25T09:31:43.645Z,4496.00
2019-03-25T09:32:43.528Z,4496.00
2019-03-25T09:33:43.518Z,4480.00
2019-03-25T09:34:43.509Z,4480.00
2019-03-25T09:35:43.519Z,4484.00
2019-03-25T09:36:43.488Z,4488.00
2019-03-25T09:37:43.624Z,4484.00
2019-03-25T09:38:43.466Z,4480.00
2019-03-25T09:39:43.456Z,4476.00
2019-03-25T09:40:43.446Z,4492.00
2019-03-25T09:41:43.435Z,4504.00
2019-03-25T09:42:43.424Z,4528.00
2019-03-25T09:43:43.511Z,4544.00
2019-03-25T09:44:43.400Z,4556.00
2019-03-25T09:45:43.391Z,4568.00
2019-03-25T09:46:43.380Z,4576.00
2019-03-25T09:47:43.368Z,4544.00
2019-03-25T09:48:43.353Z,4488.00
2019-03-25T09:49:43.445Z,4452.00
2019-03-25T09:50:43.335Z,4436.00
2019-03-25T09:51:43.323Z,4440.00
2019-03-25T09:52:43.309Z,4448.00
2019-03-25T09:53:43.301Z,4424.00
2019-03-25T09:54:43.287Z,4404.00
2019-03-25T09:55:43.428Z,4408.00
2019-03-25T09:56:43.269Z,4412.00
2019-03-25T09:57:43.258Z,4408.00
2019-03-25T09:58:43.247Z,4404.00
2019-03-25T09:59:43.237Z,4396.00
2019-03-25T10:00:43.225Z,4392.00
2019-03-25T10:01:43.263Z,4376.00
2019-03-25T10:02:43.201Z,4352.00
2019-03-25T10:03:43.188Z,4336.00
2019-03-25T10:04:43.182Z,4320.00
2019-03-25T10:05:43.169Z,4296.00
2019-03-25T10:06:43.159Z,4248.00
2019-03-25T10:07:43.253Z,4208.00
2019-03-25T10:08:43.140Z,4188.00
2019-03-25T10:09:43.127Z,4184.00
2019-03-25T10:10:43.116Z,4168.00
2019-03-25T10:11:43.105Z,4176.00
2019-03-25T10:12:43.091Z,4176.00
2019-03-25T10:13:43.236Z,4180.00
2019-03-25T10:14:43.077Z,4172.00
2019-03-25T10:15:43.064Z,4172.00
2019-03-25T10:16:43.053Z,4172.00
2019-03-25T10:17:43.041Z,4168.00
2019-03-25T10:18:43.038Z,4152.00
2019-03-25T10:19:43.066Z,4148.00
2019-03-25T10:20:43.009Z,4148.00
2019-03-25T10:21:42.996Z,4140.00
2019-03-25T10:22:42.986Z,4124.00
2019-03-25T10:23:42.985Z,4112.00
2019-03-25T10:24:42.964Z,4112.00
2019-03-25T10:25:43.055Z,4116.00
2019-03-25T10:26:42.941Z,4116.00
2019-03-25T10:27:42.932Z,4100.00
2019-03-25T10:28:48.437Z,4080.00
2019-03-25T10:30:07.732Z,4072.00
2019-03-25T10:31:08.114Z,4056.00
2019-03-25T10:32:07.737Z,4040.00
2019-03-25T10:33:07.691Z,4024.00
2019-03-25T10:34:07.681Z,4028.00
2019-03-25T10:35:07.669Z,4040.00
2019-03-25T10:36:07.659Z,4060.00
2019-03-25T10:37:07.700Z,4076.00
2019-03-25T10:38:18.861Z,4076.00
2019-03-25T10:39:32.444Z,4072.00
2019-03-25T10:40:32.431Z,4076.00
2019-03-25T10:41:32.417Z,4080.00
2019-03-25T10:42:32.508Z,4080.00
2019-03-25T10:43:32.398Z,4076.00
2019-03-25T10:44:32.388Z,4072.00
2019-03-25T10:45:32.373Z,4068.00
2019-03-25T10:46:32.363Z,4052.00
2019-03-25T10:47:32.348Z,4032.00
2019-03-25T10:48:32.490Z,4016.00
2019-03-25T10:49:32.332Z,4008.00
2019-03-25T10:50:32.318Z,4000.00
2019-03-25T10:51:32.310Z,3992.00
2019-03-25T10:52:32.296Z,3988.00
2019-03-25T10:53:32.286Z,3976.00
2019-03-25T10:54:32.397Z,3964.00
2019-03-25T10:55:32.264Z,3948.00
2019-03-25T10:56:32.254Z,3928.00
2019-03-25T10:57:32.241Z,3900.00
2019-03-25T10:58:32.233Z,3900.00
2019-03-25T10:59:32.224Z,3912.00
2019-03-25T11:00:32.310Z,3912.00
2019-03-25T11:01:32.199Z,3912.00
2019-03-25T11:02:32.184Z,3904.00
2019-03-25T11:03:32.176Z,3888.00
2019-03-25T11:04:32.164Z,3876.00
2019-03-25T11:05:32.155Z,3864.00
2019-03-25T11:06:32.392Z,3848.00
2019-03-25T11:07:32.211Z,3844.00
2019-03-25T11:08:32.125Z,3840.00
2019-03-25T11:09:32.113Z,3836.00
2019-03-25T11:10:32.105Z,3824.00
2019-03-25T11:11:32.090Z,3816.00
2019-03-25T11:12:32.178Z,3808.00
2019-03-25T11:13:32.065Z,3812.00
2019-03-25T11:14:32.058Z,3812.00
2019-03-25T11:15:32.052Z,3816.00
2019-03-25T11:16:32.036Z,3816.00
2019-03-25T11:17:32.023Z,3812.00
2019-03-25T11:18:32.123Z,3796.00
2019-03-25T11:19:32.002Z,3780.00
2019-03-25T11:20:31.989Z,3760.00
2019-03-25T11:21:31.981Z,3756.00
2019-03-25T11:22:31.969Z,3740.00
2019-03-25T11:23:31.959Z,3736.00
2019-03-25T11:24:32.094Z,3724.00
2019-03-25T11:25:31.938Z,3712.00
2019-03-25T11:26:31.925Z,3708.00
2019-03-25T11:27:31.917Z,3688.00
2019-03-25T11:28:31.905Z,3676.00
2019-03-25T11:29:31.889Z,3664.00
2019-03-25T11:30:31.984Z,3652.00
2019-03-25T11:31:31.872Z,3628.00
2019-03-25T11:32:31.880Z,3604.00
2019-03-25T11:33:31.844Z,3580.00
2019-03-25T11:34:31.870Z,3568.00
2019-03-25T11:35:31.825Z,3544.00
2019-03-25T11:36:31.866Z,3536.00
2019-03-25T11:37:31.799Z,3512.00
2019-03-25T11:38:31.788Z,3496.00
2019-03-25T11:39:31.784Z,3476.00
2019-03-25T11:40:31.766Z,3460.00
2019-03-25T11:41:31.756Z,3444.00
2019-03-25T11:42:31.904Z,3436.00
2019-03-25T11:43:31.734Z,3424.00
2019-03-25T11:44:31.727Z,3408.00
2019-03-25T11:45:31.711Z,3404.00
2019-03-25T11:46:31.704Z,3400.00
2019-03-25T11:47:31.697Z,3396.00
2019-03-25T11:48:31.735Z,3388.00
2019-03-25T11:49:31.672Z,3376.00
2019-03-25T11:50:31.661Z,3356.00
2019-03-25T11:51:31.648Z,3348.00
2019-03-25T11:52:31.640Z,3324.00
2019-03-25T11:53:31.628Z,3296.00
2019-03-25T11:54:31.717Z,3272.00
2019-03-25T11:55:31.601Z,3236.00
2019-03-25T11:56:31.590Z,3204.00
2019-03-25T11:57:31.585Z,3164.00
2019-03-25T11:58:31.573Z,3124.00
2019-03-25T11:59:31.562Z,3120.00
2019-03-25T12:00:31.802Z,3104.00
2019-03-25T12:01:31.538Z,3104.00
2019-03-25T12:02:31.527Z,3096.00
2019-03-25T12:03:31.516Z,3080.00
2019-03-25T12:04:31.506Z,3072.00
2019-03-25T12:05:31.496Z,3064.00
2019-03-25T12:06:31.531Z,3060.00
2019-03-25T12:07:31.473Z,3056.00
2019-03-25T12:08:31.462Z,3056.00
2019-03-25T12:09:31.447Z,3044.00
2019-03-25T12:10:31.439Z,3048.00
2019-03-25T12:11:31.429Z,3044.00
2019-03-25T12:12:31.517Z,3028.00
2019-03-25T12:13:31.407Z,3008.00
2019-03-25T12:14:31.393Z,2984.00
2019-03-25T12:15:31.386Z,2964.00
2019-03-25T12:16:31.564Z,2952.00
2019-03-25T12:17:31.362Z,2948.00
2019-03-25T12:18:31.645Z,2956.00
2019-03-25T12:19:31.340Z,2952.00
2019-03-25T12:20:31.332Z,2952.00
2019-03-25T12:21:31.317Z,2948.00
2019-03-25T12:22:31.307Z,2944.00
2019-03-25T12:23:31.295Z,2940.00
2019-03-25T12:24:31.334Z,2932.00
2019-03-25T12:25:31.271Z,2916.00
2019-03-25T12:26:31.272Z,2884.00
2019-03-25T12:27:31.342Z,2864.00
2019-03-25T12:28:31.243Z,2840.00
2019-03-25T12:29:31.227Z,2832.00
2019-03-25T12:30:31.269Z,2800.00
2019-03-25T12:31:31.208Z,2772.00
2019-03-25T12:32:31.202Z,2740.00
2019-03-25T12:33:31.187Z,2708.00
2019-03-25T12:34:31.251Z,2684.00
2019-03-25T12:35:31.158Z,2668.00
2019-03-25T12:36:31.401Z,2644.00
2019-03-25T12:37:31.135Z,2620.00
2019-03-25T12:38:31.128Z,2596.00
2019-03-25T12:39:31.116Z,2572.00
2019-03-25T12:40:31.106Z,2544.00
2019-03-25T12:41:31.096Z,2516.00
2019-03-25T12:42:31.136Z,2484.00
2019-03-25T12:43:31.073Z,2444.00
2019-03-25T12:44:31.057Z,2408.00
2019-03-25T12:45:31.047Z,2364.00
2019-03-25T12:46:31.042Z,2324.00
2019-03-25T12:47:31.029Z,2276.00
2019-03-25T12:48:31.115Z,2228.00
2019-03-25T12:49:31.004Z,2176.00
2019-03-25T12:50:30.994Z,2128.00
2019-03-25T12:51:30.989Z,2076.00
2019-03-25T12:52:30.975Z,2028.00
2019-03-25T12:53:30.965Z,1980.00
2019-03-25T12:54:31.104Z,1928.00
2019-03-25T12:55:30.946Z,1876.00
2019-03-25T12:56:30.928Z,1824.00
2019-03-25T12:57:30.920Z,1768.00
2019-03-25T12:58:30.909Z,1716.00
2019-03-25T12:59:40.795Z,1672.00
2019-03-25T13:00:55.756Z,1588.00
2019-03-25T13:01:55.740Z,1520.00
2019-03-25T13:02:55.726Z,1464.00